createdAt,value
2023-08-19T00:02:04.282Z,15.55
2023-08-19T00:04:31.774Z,19.98
2023-08-19T00:06:59.341Z,13.93
2023-08-19T00:09:28.624Z,13.38
2023-08-19T00:11:56.157Z,13.70
2023-08-19T00:14:24.796Z,13.60
2023-08-19T00:16:53.744Z,14.07
2023-08-19T00:19:21.252Z,13.65
2023-08-19T00:21:48.725Z,14.50
2023-08-19T00:24:16.334Z,13.93
2023-08-19T00:26:43.782Z,15.40
2023-08-19T00:29:11.248Z,13.57
2023-08-19T00:31:40.837Z,17.25
2023-08-19T00:34:10.224Z,14.77
2023-08-19T00:36:37.675Z,12.90
2023-08-19T00:39:05.310Z,12.18
2023-08-19T00:41:34.039Z,12.90
2023-08-19T00:44:01.500Z,11.93
2023-08-19T00:46:29.378Z,15.75
2023-08-19T00:48:57.542Z,14.07
2023-08-19T00:51:26.600Z,14.65
2023-08-19T00:53:54.616Z,14.82
2023-08-19T00:56:22.208Z,14.00
2023-08-19T00:58:49.676Z,13.57
2023-08-19T01:01:17.231Z,11.13
2023-08-19T01:03:44.894Z,13.00
2023-08-19T01:06:28.277Z,13.20
2023-08-19T01:09:03.056Z,13.98
2023-08-19T01:11:46.676Z,12.88
2023-08-19T01:14:23.622Z,15.77
2023-08-19T01:16:54.883Z,15.63
2023-08-19T01:19:25.780Z,15.65
2023-08-19T01:21:59.780Z,15.70
2023-08-19T01:24:27.688Z,14.77
2023-08-19T01:26:57.533Z,13.20
2023-08-19T01:29:25.033Z,14.15
2023-08-19T01:31:52.840Z,13.75
2023-08-19T01:34:20.539Z,14.70
2023-08-19T01:36:52.261Z,16.05
2023-08-19T01:39:21.712Z,17.48
2023-08-19T01:41:50.421Z,18.73
2023-08-19T01:44:19.731Z,15.15
2023-08-19T01:46:47.242Z,15.65
2023-08-19T01:49:14.753Z,15.50
2023-08-19T01:51:42.267Z,15.23
2023-08-19T01:54:09.936Z,14.30
2023-08-19T01:56:37.921Z,16.92
2023-08-19T01:59:05.790Z,15.75
2023-08-19T02:01:34.629Z,21.50
2023-08-19T02:04:02.133Z,14.60
2023-08-19T02:06:30.321Z,15.95
2023-08-19T02:08:57.804Z,14.23
2023-08-19T02:11:25.404Z,15.52
2023-08-19T02:13:52.913Z,14.63
2023-08-19T02:16:20.539Z,15.13
2023-08-19T02:18:49.363Z,14.15
2023-08-19T02:21:16.829Z,12.82
2023-08-19T02:23:44.308Z,13.25
2023-08-19T02:26:13.743Z,13.73
2023-08-19T02:28:41.261Z,13.77
2023-08-19T02:31:08.844Z,13.68
2023-08-19T02:33:37.523Z,13.68
2023-08-19T02:36:07.800Z,12.63
2023-08-19T02:38:35.328Z,12.90
2023-08-19T02:41:02.816Z,13.60
2023-08-19T02:43:30.325Z,13.50
2023-08-19T02:45:59.069Z,13.45
2023-08-19T02:48:26.626Z,13.32
2023-08-19T02:50:54.890Z,13.32
2023-08-19T02:53:23.933Z,17.20
2023-08-19T02:55:53.277Z,16.25
2023-08-19T02:58:20.771Z,14.68
2023-08-19T03:00:48.856Z,15.60
2023-08-19T03:03:16.671Z,14.98
2023-08-19T03:05:44.252Z,15.07
2023-08-19T03:08:12.327Z,14.75
2023-08-19T03:10:42.556Z,13.32
2023-08-19T03:13:10.860Z,13.82
2023-08-19T03:15:39.731Z,13.10
2023-08-19T03:18:07.756Z,12.85
2023-08-19T03:20:35.325Z,13.00
2023-08-19T03:23:02.797Z,12.77
2023-08-19T03:25:30.356Z,13.00
2023-08-19T03:27:59.412Z,14.05
2023-08-19T03:30:27.022Z,14.07
2023-08-19T03:33:03.492Z,15.55
2023-08-19T03:35:31.005Z,14.63
2023-08-19T03:37:58.491Z,14.90
2023-08-19T03:40:26.383Z,20.48
2023-08-19T03:42:53.825Z,17.95
2023-08-19T03:45:22.641Z,16.77
2023-08-19T03:47:50.155Z,16.48
2023-08-19T03:50:17.878Z,17.52
2023-08-19T03:52:45.475Z,14.80
2023-08-19T03:55:12.923Z,15.70
2023-08-19T03:57:40.453Z,17.05
2023-08-19T04:00:09.159Z,17.10
2023-08-19T04:02:38.008Z,15.32
2023-08-19T04:05:08.921Z,14.77
2023-08-19T04:07:36.649Z,16.45
2023-08-19T04:10:05.005Z,15.88
2023-08-19T04:12:32.548Z,14.60
2023-08-19T04:15:00.036Z,13.57
2023-08-19T04:17:27.595Z,13.45
2023-08-19T04:19:56.436Z,14.32
2023-08-19T04:22:23.939Z,13.73
2023-08-19T04:24:51.896Z,14.23
2023-08-19T04:27:19.648Z,17.60
2023-08-19T04:29:47.621Z,15.98
2023-08-19T04:32:15.248Z,15.60
2023-08-19T04:34:42.797Z,16.00
2023-08-19T04:37:11.674Z,15.68
2023-08-19T04:39:39.587Z,14.98
2023-08-19T04:42:07.528Z,15.80
2023-08-19T04:44:35.031Z,16.77
2023-08-19T04:47:02.496Z,17.88
2023-08-19T04:49:30.112Z,16.58
2023-08-19T04:51:57.644Z,18.88
2023-08-19T04:54:26.733Z,22.20
2023-08-19T04:56:54.189Z,19.38
2023-08-19T04:59:21.683Z,16.88
2023-08-19T05:01:49.209Z,15.23
2023-08-19T05:04:16.825Z,16.20
2023-08-19T05:06:44.362Z,18.38
2023-08-19T05:09:12.034Z,16.60
2023-08-19T05:11:40.808Z,19.05
2023-08-19T05:14:08.303Z,19.05
2023-08-19T05:16:35.783Z,14.85
2023-08-19T05:19:16.157Z,19.33
2023-08-19T05:21:44.096Z,15.00
2023-08-19T05:24:12.781Z,19.73
2023-08-19T05:26:41.857Z,17.05
2023-08-19T05:29:09.470Z,17.75
2023-08-19T05:31:37.303Z,16.83
2023-08-19T05:34:05.191Z,19.55
2023-08-19T05:36:32.722Z,20.10
2023-08-19T05:39:00.189Z,23.45
2023-08-19T05:41:27.980Z,21.02
2023-08-19T05:43:56.924Z,18.67
2023-08-19T05:46:24.896Z,17.90
2023-08-19T05:48:52.719Z,22.65
2023-08-19T05:51:20.326Z,18.75
2023-08-19T05:53:47.819Z,22.77
2023-08-19T05:56:15.457Z,19.20
2023-08-19T05:58:42.981Z,21.60
2023-08-19T06:01:11.922Z,19.70
2023-08-19T06:03:39.588Z,19.00
2023-08-19T06:06:07.704Z,22.02
2023-08-19T06:08:35.524Z,20.65
2023-08-19T06:11:06.354Z,19.38
2023-08-19T06:13:34.098Z,18.47
2023-08-19T06:16:02.016Z,27.63
2023-08-19T06:18:30.927Z,19.15
2023-08-19T06:20:58.982Z,21.67
2023-08-19T06:23:26.763Z,20.40
2023-08-19T06:25:54.790Z,21.88
2023-08-19T06:28:23.160Z,18.55
2023-08-19T06:30:51.674Z,20.23
2023-08-19T06:33:20.443Z,18.33
2023-08-19T06:35:51.079Z,20.55
2023-08-19T06:38:21.228Z,20.65
2023-08-19T06:40:57.039Z,21.77
2023-08-19T06:43:27.308Z,20.63
2023-08-19T06:45:56.357Z,22.77
2023-08-19T06:48:33.621Z,20.73
2023-08-19T06:51:04.169Z,20.63
2023-08-19T06:53:32.366Z,16.77
2023-08-19T06:56:06.870Z,18.65
2023-08-19T06:58:38.160Z,23.95
2023-08-19T07:01:09.085Z,19.23
2023-08-19T07:03:37.386Z,19.38
2023-08-19T07:06:07.072Z,19.38
2023-08-19T07:08:35.731Z,19.92
2023-08-19T07:11:03.813Z,18.50
2023-08-19T07:13:31.879Z,19.08
2023-08-19T07:16:02.276Z,19.95
2023-08-19T07:18:32.465Z,15.23
2023-08-19T07:21:01.173Z,18.83
2023-08-19T07:23:30.017Z,16.85
2023-08-19T07:25:58.340Z,17.85
2023-08-19T07:28:26.336Z,15.32
2023-08-19T07:30:54.402Z,19.60
2023-08-19T07:33:21.932Z,12.50
2023-08-19T07:35:49.447Z,17.15
2023-08-19T07:38:17.105Z,15.82
2023-08-19T07:40:45.920Z,13.13
2023-08-19T07:43:14.726Z,16.38
2023-08-19T07:45:42.759Z,14.93
2023-08-19T07:48:19.838Z,14.27
2023-08-19T07:50:47.318Z,12.73
2023-08-19T07:53:14.876Z,13.10
2023-08-19T07:55:42.530Z,12.68
2023-08-19T07:58:11.357Z,12.43
2023-08-19T08:00:39.107Z,11.48
2023-08-19T08:03:07.849Z,15.18
2023-08-19T08:05:35.591Z,11.93
2023-08-19T08:08:03.874Z,14.80
2023-08-19T08:10:31.315Z,13.73
2023-08-19T08:12:58.820Z,13.93
2023-08-19T08:15:27.769Z,12.63
2023-08-19T08:17:55.379Z,12.82
2023-08-19T08:20:23.680Z,11.63
2023-08-19T08:22:51.141Z,11.75
2023-08-19T08:25:18.783Z,13.40
2023-08-19T08:27:47.321Z,12.82
2023-08-19T08:30:14.952Z,11.95
2023-08-19T08:32:43.871Z,11.30
2023-08-19T08:35:11.367Z,13.40
2023-08-19T08:37:38.853Z,12.45
2023-08-19T08:40:08.330Z,10.65
2023-08-19T08:42:35.928Z,12.57
2023-08-19T08:45:03.638Z,12.07
2023-08-19T08:47:31.837Z,11.75
2023-08-19T08:50:01.355Z,12.23
2023-08-19T08:52:29.112Z,15.50
2023-08-19T08:54:59.672Z,14.25
2023-08-19T08:57:27.166Z,15.00
2023-08-19T08:59:55.338Z,9.88
2023-08-19T09:02:23.420Z,9.85
2023-08-19T09:04:51.146Z,12.43
2023-08-19T09:07:24.643Z,9.63
2023-08-19T09:09:53.141Z,12.90
2023-08-19T09:12:23.263Z,13.52
2023-08-19T09:14:55.625Z,12.05
2023-08-19T09:17:23.126Z,10.82
2023-08-19T09:19:50.872Z,11.23
2023-08-19T09:22:23.987Z,12.60
2023-08-19T09:24:54.157Z,9.90
2023-08-19T09:27:27.622Z,10.45
2023-08-19T09:29:55.563Z,13.13
2023-08-19T09:32:30.699Z,10.00
2023-08-19T09:35:06.405Z,12.15
2023-08-19T09:37:36.844Z,10.52
2023-08-19T09:40:08.838Z,10.27
2023-08-19T09:42:36.571Z,11.88
2023-08-19T09:45:05.339Z,12.52
2023-08-19T09:47:33.245Z,11.15
2023-08-19T09:50:00.774Z,11.73
2023-08-19T09:52:28.323Z,12.23
2023-08-19T09:54:57.128Z,11.60
2023-08-19T09:57:35.068Z,10.85
2023-08-19T10:00:05.177Z,11.75
2023-08-19T10:02:33.034Z,12.73
2023-08-19T10:05:00.716Z,10.48
2023-08-19T10:07:32.765Z,10.25
2023-08-19T10:10:04.696Z,10.07
2023-08-19T10:12:33.241Z,10.85
2023-08-19T10:15:01.619Z,10.20
2023-08-19T10:17:30.199Z,12.85
2023-08-19T10:20:01.573Z,10.65
2023-08-19T10:22:29.643Z,15.50
2023-08-19T10:24:58.730Z,10.15
2023-08-19T10:27:27.858Z,11.45
2023-08-19T10:29:58.223Z,9.15
2023-08-19T10:32:34.449Z,11.93
2023-08-19T10:35:05.658Z,11.85
2023-08-19T10:40:09.742Z,10.88
2023-08-19T10:42:38.628Z,12.73
2023-08-19T10:45:15.235Z,9.10
2023-08-19T10:47:43.411Z,9.02
2023-08-19T10:50:11.376Z,11.20
2023-08-19T10:52:42.098Z,10.82
2023-08-19T10:55:10.112Z,10.02
2023-08-19T10:57:39.941Z,9.35
2023-08-19T11:00:11.809Z,8.68
2023-08-19T11:02:39.382Z,8.98
2023-08-19T11:05:08.492Z,7.50
2023-08-19T11:07:36.058Z,10.15
2023-08-19T11:10:04.244Z,8.60
2023-08-19T11:12:32.031Z,7.25
2023-08-19T11:15:01.494Z,8.73
2023-08-19T11:17:29.938Z,7.90
2023-08-19T11:19:59.307Z,7.57
2023-08-19T11:22:27.044Z,9.57
2023-08-19T11:24:54.593Z,7.05
2023-08-19T11:27:22.765Z,11.88
2023-08-19T11:29:50.610Z,8.00
2023-08-19T11:32:22.520Z,7.93
2023-08-19T11:34:50.024Z,10.07
2023-08-19T11:37:17.625Z,8.93
2023-08-19T11:39:46.893Z,7.50
2023-08-19T11:42:14.752Z,8.90
2023-08-19T11:44:43.809Z,9.20
2023-08-19T11:47:12.971Z,7.25
2023-08-19T11:49:44.231Z,8.15
2023-08-19T11:52:11.800Z,8.82
2023-08-19T11:54:39.282Z,7.40
2023-08-19T11:57:07.514Z,7.78
2023-08-19T11:59:36.392Z,8.65
2023-08-19T12:02:06.026Z,7.15
2023-08-19T12:04:34.180Z,6.93
2023-08-19T12:07:05.296Z,7.72
2023-08-19T12:12:03.804Z,10.73
2023-08-19T12:14:31.323Z,6.78
2023-08-19T12:16:58.918Z,8.13
2023-08-19T12:19:26.433Z,7.03
2023-08-19T12:21:53.908Z,7.82
2023-08-19T12:24:22.724Z,7.35
2023-08-19T12:26:50.205Z,8.32
2023-08-19T12:29:17.701Z,7.55
2023-08-19T12:31:45.206Z,8.38
2023-08-19T12:34:13.923Z,7.50
2023-08-19T12:36:41.416Z,8.32
2023-08-19T12:39:09.480Z,8.30
2023-08-19T12:41:38.504Z,8.45
2023-08-19T12:44:06.179Z,9.82
2023-08-19T12:46:43.473Z,8.40
2023-08-19T12:49:11.110Z,8.00
2023-08-19T12:51:38.606Z,8.30
2023-08-19T12:54:06.577Z,6.88
2023-08-19T12:56:34.087Z,8.27
2023-08-19T12:59:03.000Z,7.15
2023-08-19T13:01:30.693Z,7.60
2023-08-19T13:03:58.293Z,7.22
2023-08-19T13:06:25.829Z,6.50
2023-08-19T13:08:53.404Z,6.10
2023-08-19T13:11:20.961Z,7.13
2023-08-19T13:13:48.602Z,6.72
2023-08-19T13:16:17.479Z,6.82
2023-08-19T13:18:45.183Z,7.43
2023-08-19T13:21:12.708Z,7.38
2023-08-19T13:23:42.797Z,7.85
2023-08-19T13:26:10.668Z,8.05
2023-08-19T13:28:38.127Z,8.75
2023-08-19T13:31:06.205Z,6.75
2023-08-19T13:33:44.004Z,6.18
2023-08-19T13:36:11.495Z,5.93
2023-08-19T13:38:40.049Z,6.32
2023-08-19T13:41:07.516Z,5.88
2023-08-19T13:43:36.784Z,5.72
2023-08-19T13:46:04.246Z,6.43
2023-08-19T13:48:31.743Z,6.43
2023-08-19T13:51:00.699Z,7.03
2023-08-19T13:53:28.903Z,7.13
2023-08-19T13:55:56.415Z,7.53
2023-08-19T13:58:23.925Z,8.80
2023-08-19T14:00:51.542Z,7.10
2023-08-19T14:03:19.779Z,6.80
2023-08-19T14:05:47.350Z,7.28
2023-08-19T14:08:16.130Z,6.53
2023-08-19T14:10:43.577Z,6.90
2023-08-19T14:13:11.102Z,5.75
2023-08-19T14:15:39.127Z,6.45
2023-08-19T14:18:07.168Z,6.57
2023-08-19T14:20:34.713Z,6.35
2023-08-19T14:23:02.248Z,6.30
2023-08-19T14:25:31.080Z,6.18
2023-08-19T14:28:07.694Z,6.28
2023-08-19T14:30:36.965Z,5.80
2023-08-19T14:33:05.705Z,5.65
2023-08-19T14:35:33.237Z,5.68
2023-08-19T14:38:00.786Z,5.07
2023-08-19T14:40:28.303Z,6.40
2023-08-19T14:42:59.078Z,7.10
2023-08-19T14:45:26.574Z,10.10
2023-08-19T14:47:54.254Z,5.90
2023-08-19T14:50:23.342Z,6.35
2023-08-19T14:52:51.108Z,6.15
2023-08-19T14:55:18.835Z,7.72
2023-08-19T14:57:49.758Z,8.15
2023-08-19T15:02:49.540Z,6.75
2023-08-19T15:05:17.776Z,6.60
2023-08-19T15:07:45.398Z,9.88
2023-08-19T15:10:13.386Z,6.25
2023-08-19T15:12:40.842Z,6.80
2023-08-19T15:15:11.272Z,9.57
2023-08-19T15:17:40.099Z,6.32
2023-08-19T15:20:09.134Z,6.15
2023-08-19T15:22:36.849Z,6.13
2023-08-19T15:25:05.461Z,8.95
2023-08-19T15:27:33.281Z,6.20
2023-08-19T15:30:00.998Z,8.27
2023-08-19T15:32:28.673Z,6.68
2023-08-19T15:34:57.638Z,6.75
2023-08-19T15:37:25.699Z,6.78
2023-08-19T15:39:53.377Z,8.90
2023-08-19T15:42:21.246Z,6.40
2023-08-19T15:44:48.794Z,6.65
2023-08-19T15:47:16.308Z,5.93
2023-08-19T15:49:43.822Z,7.60
2023-08-19T15:52:13.859Z,6.40
2023-08-19T15:54:41.428Z,5.90
2023-08-19T15:57:09.411Z,6.20
2023-08-19T15:59:37.754Z,6.15
2023-08-19T16:02:05.351Z,8.52
2023-08-19T16:04:32.802Z,9.35
2023-08-19T16:07:00.307Z,6.22
2023-08-19T16:09:29.115Z,6.10
2023-08-19T16:11:56.546Z,5.07
2023-08-19T16:14:24.210Z,5.65
2023-08-19T16:17:17.095Z,5.85
2023-08-19T16:19:44.634Z,5.40
2023-08-19T16:22:13.648Z,5.30
2023-08-19T16:24:44.006Z,5.75
2023-08-19T16:27:11.584Z,6.13
2023-08-19T16:29:39.091Z,5.45
2023-08-19T16:32:07.879Z,7.88
2023-08-19T16:34:35.356Z,6.30
2023-08-19T16:37:02.854Z,5.90
2023-08-19T16:39:30.342Z,5.70
2023-08-19T16:41:59.171Z,7.57
2023-08-19T16:44:26.697Z,5.60
2023-08-19T16:46:54.207Z,5.63
2023-08-19T16:49:21.844Z,9.90
2023-08-19T16:51:49.337Z,5.75
2023-08-19T16:54:16.850Z,4.95
2023-08-19T16:56:44.327Z,5.75
2023-08-19T16:59:13.148Z,5.72
2023-08-19T17:01:40.660Z,5.13
2023-08-19T17:04:08.838Z,6.18
2023-08-19T17:06:36.497Z,5.13
2023-08-19T17:09:06.382Z,5.90
2023-08-19T17:11:33.870Z,5.22
2023-08-19T17:14:01.422Z,5.63
2023-08-19T17:16:30.358Z,5.32
2023-08-19T17:18:58.016Z,5.80
2023-08-19T17:21:25.492Z,6.65
2023-08-19T17:23:52.983Z,6.72
2023-08-19T17:26:20.593Z,10.40
2023-08-19T17:28:48.091Z,7.30
2023-08-19T17:31:15.622Z,7.05
2023-08-19T17:33:44.536Z,6.78
2023-08-19T17:36:11.976Z,6.00
2023-08-19T17:38:39.435Z,6.07
2023-08-19T17:41:07.954Z,6.45
2023-08-19T17:43:35.424Z,6.72
2023-08-19T17:46:03.865Z,7.25
2023-08-19T17:48:31.739Z,7.40
2023-08-19T17:51:02.508Z,6.95
2023-08-19T17:53:32.885Z,6.95
2023-08-19T17:56:00.807Z,6.78
2023-08-19T17:58:30.805Z,6.70
2023-08-19T18:00:59.002Z,6.55
2023-08-19T18:03:26.525Z,6.30
2023-08-19T18:05:54.137Z,6.72
2023-08-19T18:08:23.063Z,6.72
2023-08-19T18:10:52.497Z,6.75
2023-08-19T18:13:29.389Z,6.63
2023-08-19T18:15:57.050Z,7.05
2023-08-19T18:18:24.572Z,11.65
2023-08-19T18:20:55.611Z,9.27
2023-08-19T18:25:52.050Z,8.90
2023-08-19T18:28:19.582Z,9.55
2023-08-19T18:30:48.907Z,9.30
2023-08-19T18:33:16.423Z,9.27
2023-08-19T18:35:44.859Z,9.02
2023-08-19T18:38:13.220Z,10.63
2023-08-19T18:40:42.271Z,12.13
2023-08-19T18:43:09.706Z,9.35
2023-08-19T18:45:37.335Z,10.95
2023-08-19T18:48:07.042Z,8.90
2023-08-19T18:50:35.887Z,9.23
2023-08-19T18:53:03.781Z,7.82
2023-08-19T18:55:32.410Z,8.68
2023-08-19T18:58:01.349Z,8.27
2023-08-19T19:00:29.517Z,9.02
2023-08-19T19:02:57.194Z,8.00
2023-08-19T19:05:25.112Z,8.50
2023-08-19T19:07:52.872Z,8.48
2023-08-19T19:10:21.043Z,7.93
2023-08-19T19:12:49.643Z,8.73
2023-08-19T19:15:18.765Z,8.23
2023-08-19T19:17:51.578Z,10.32
2023-08-19T19:20:19.447Z,9.23
2023-08-19T19:22:47.257Z,8.77
2023-08-19T19:25:15.169Z,9.10
2023-08-19T19:27:43.167Z,9.23
2023-08-19T19:30:11.893Z,9.32
2023-08-19T19:32:42.172Z,8.25
2023-08-19T19:35:12.465Z,8.00
2023-08-19T19:37:40.883Z,9.30
2023-08-19T19:40:09.842Z,8.82
2023-08-19T19:42:37.699Z,8.98
2023-08-19T19:45:06.286Z,9.32
2023-08-19T19:47:35.158Z,8.98
2023-08-19T19:50:04.855Z,8.98
2023-08-19T19:52:32.468Z,8.85
2023-08-19T19:54:59.984Z,8.18
2023-08-19T19:57:27.976Z,9.05
2023-08-19T19:59:56.061Z,9.82
2023-08-19T20:02:23.723Z,9.68
2023-08-19T20:04:51.380Z,9.30
2023-08-19T20:07:20.182Z,8.65
2023-08-19T20:09:47.682Z,8.60
2023-08-19T20:12:15.199Z,9.27
2023-08-19T20:14:42.693Z,9.52
2023-08-19T20:17:10.474Z,8.88
2023-08-19T20:19:37.973Z,9.43
2023-08-19T20:22:05.764Z,9.27
2023-08-19T20:24:34.601Z,9.75
2023-08-19T20:27:02.453Z,9.88
2023-08-19T20:29:29.999Z,10.10
2023-08-19T20:31:57.760Z,9.70
2023-08-19T20:34:25.441Z,10.55
2023-08-19T20:36:52.976Z,10.02
2023-08-19T20:39:20.445Z,10.23
2023-08-19T20:41:50.528Z,10.95
2023-08-19T20:44:18.752Z,9.95
2023-08-19T20:46:46.229Z,10.80
2023-08-19T20:49:16.238Z,10.38
2023-08-19T20:51:43.852Z,10.35
2023-08-19T20:54:11.742Z,9.70
2023-08-19T20:56:39.295Z,10.38
2023-08-19T20:59:10.226Z,9.80
2023-08-19T21:01:39.259Z,10.10
2023-08-19T21:04:07.072Z,10.07
2023-08-19T21:06:34.629Z,10.57
2023-08-19T21:09:02.110Z,10.35
2023-08-19T21:11:29.588Z,10.90
2023-08-19T21:13:57.087Z,10.77
2023-08-19T21:16:25.968Z,10.23
2023-08-19T21:18:53.922Z,10.13
2023-08-19T21:21:21.433Z,10.13
2023-08-19T21:23:48.921Z,9.77
2023-08-19T21:26:16.492Z,9.70
2023-08-19T21:28:44.065Z,10.07
2023-08-19T21:31:11.543Z,10.40
2023-08-19T21:33:49.528Z,10.60
2023-08-19T21:36:16.979Z,9.95
2023-08-19T21:38:44.541Z,9.90
2023-08-19T21:41:12.137Z,10.38
2023-08-19T21:43:39.643Z,10.65
2023-08-19T21:46:07.321Z,10.93
2023-08-19T21:48:34.858Z,10.27
2023-08-19T21:51:05.202Z,10.55
2023-08-19T21:53:32.759Z,9.52
2023-08-19T21:56:00.272Z,10.32
2023-08-19T21:58:27.778Z,11.60
2023-08-19T22:00:57.374Z,11.88
2023-08-19T22:03:25.038Z,11.10
2023-08-19T22:05:52.946Z,10.93
2023-08-19T22:08:23.781Z,11.48
2023-08-19T22:10:51.305Z,10.80
2023-08-19T22:13:18.852Z,10.90
2023-08-19T22:15:46.362Z,11.07
2023-08-19T22:18:13.941Z,10.10
2023-08-19T22:20:50.837Z,12.00
2023-08-19T22:23:19.345Z,11.30
2023-08-19T22:25:48.563Z,10.77
2023-08-19T22:28:16.100Z,9.68
2023-08-19T22:30:43.678Z,10.95
2023-08-19T22:33:11.137Z,10.93
2023-08-19T22:35:38.686Z,10.88
2023-08-19T22:38:06.178Z,10.57
2023-08-19T22:40:33.656Z,10.70
2023-08-19T22:43:03.999Z,10.50
2023-08-19T22:45:31.486Z,11.80
2023-08-19T22:47:58.969Z,13.60
2023-08-19T22:50:26.534Z,12.45
2023-08-19T22:52:54.125Z,12.80
2023-08-19T22:55:21.608Z,13.32
2023-08-19T22:57:49.059Z,12.07
2023-08-19T23:00:19.002Z,12.05
2023-08-19T23:02:46.582Z,14.45
2023-08-19T23:05:14.182Z,11.15
2023-08-19T23:07:41.809Z,12.68
2023-08-19T23:10:10.888Z,11.82
2023-08-19T23:12:38.378Z,13.23
2023-08-19T23:15:06.964Z,13.35
2023-08-19T23:17:35.991Z,13.55
2023-08-19T23:20:04.315Z,15.25
2023-08-19T23:22:32.084Z,13.02
2023-08-19T23:24:59.648Z,15.32
2023-08-19T23:27:27.353Z,14.88
2023-08-19T23:29:54.840Z,13.07
2023-08-19T23:32:22.327Z,13.15
2023-08-19T23:34:51.140Z,13.85
2023-08-19T23:37:18.627Z,16.88
2023-08-19T23:39:46.330Z,14.70
2023-08-19T23:42:13.869Z,13.15
2023-08-19T23:44:41.796Z,13.57
2023-08-19T23:47:10.088Z,13.73
2023-08-19T23:49:38.010Z,14.68
2023-08-19T23:52:13.382Z,14.50
2023-08-19T23:54:41.541Z,14.95
2023-08-19T23:57:10.170Z,16.52
2023-08-19T23:59:38.073Z,13.57
